sensor_id;sensor_type;location;lat;lon;timestamp;P1;durP1;ratioP1;P2;durP2;ratioP2
56712;SDS011;42589;45.536;9.032;2024-01-27T00:02:24;156.77;;;101.85;;
56712;SDS011;42589;45.536;9.032;2024-01-27T00:05:28;148.95;;;95.75;;
56712;SDS011;42589;45.536;9.032;2024-01-27T00:08:29;149.20;;;96.75;;
56712;SDS011;42589;45.536;9.032;2024-01-27T00:11:29;146.25;;;95.65;;
56712;SDS011;42589;45.536;9.032;2024-01-27T00:14:30;138.80;;;94.22;;
56712;SDS011;42589;45.536;9.032;2024-01-27T00:17:31;153.15;;;97.13;;
56712;SDS011;42589;45.536;9.032;2024-01-27T00:20:31;148.75;;;94.22;;
56712;SDS011;42589;45.536;9.032;2024-01-27T00:23:32;145.57;;;95.53;;
56712;SDS011;42589;45.536;9.032;2024-01-27T00:26:33;154.77;;;96.20;;
56712;SDS011;42589;45.536;9.032;2024-01-27T00:29:34;149.85;;;99.38;;
56712;SDS011;42589;45.536;9.032;2024-01-27T00:32:38;157.52;;;103.47;;
56712;SDS011;42589;45.536;9.032;2024-01-27T00:35:39;159.05;;;101.55;;
56712;SDS011;42589;45.536;9.032;2024-01-27T00:38:39;157.32;;;104.28;;
56712;SDS011;42589;45.536;9.032;2024-01-27T00:41:40;150.82;;;103.05;;
56712;SDS011;42589;45.536;9.032;2024-01-27T00:44:41;163.23;;;102.38;;
56712;SDS011;42589;45.536;9.032;2024-01-27T00:47:42;162.98;;;105.22;;
56712;SDS011;42589;45.536;9.032;2024-01-27T00:50:42;163.52;;;107.13;;
56712;SDS011;42589;45.536;9.032;2024-01-27T00:53:43;168.40;;;106.32;;
56712;SDS011;42589;45.536;9.032;2024-01-27T00:56:44;159.93;;;99.38;;
56712;SDS011;42589;45.536;9.032;2024-01-27T00:59:45;158.40;;;104.78;;
56712;SDS011;42589;45.536;9.032;2024-01-27T01:02:46;168.27;;;107.40;;
56712;SDS011;42589;45.536;9.032;2024-01-27T01:05:47;161.52;;;101.97;;
56712;SDS011;42589;45.536;9.032;2024-01-27T01:08:48;159.13;;;104.55;;
56712;SDS011;42589;45.536;9.032;2024-01-27T01:11:48;159.55;;;100.30;;
56712;SDS011;42589;45.536;9.032;2024-01-27T01:14:49;157.00;;;101.28;;
56712;SDS011;42589;45.536;9.032;2024-01-27T01:17:49;158.73;;;101.57;;
56712;SDS011;42589;45.536;9.032;2024-01-27T01:20:50;156.18;;;100.82;;
56712;SDS011;42589;45.536;9.032;2024-01-27T01:23:51;160.20;;;104.28;;
56712;SDS011;42589;45.536;9.032;2024-01-27T01:26:52;155.57;;;104.78;;
56712;SDS011;42589;45.536;9.032;2024-01-27T01:29:52;180.63;;;105.57;;
56712;SDS011;42589;45.536;9.032;2024-01-27T01:32:53;165.75;;;103.60;;
56712;SDS011;42589;45.536;9.032;2024-01-27T01:35:54;166.20;;;104.63;;
56712;SDS011;42589;45.536;9.032;2024-01-27T01:38:54;167.25;;;106.07;;
56712;SDS011;42589;45.536;9.032;2024-01-27T01:41:55;166.85;;;110.35;;
56712;SDS011;42589;45.536;9.032;2024-01-27T01:44:56;173.02;;;114.47;;
56712;SDS011;42589;45.536;9.032;2024-01-27T01:47:56;174.98;;;107.32;;
56712;SDS011;42589;45.536;9.032;2024-01-27T01:50:58;162.40;;;106.40;;
56712;SDS011;42589;45.536;9.032;2024-01-27T01:53:58;179.48;;;110.03;;
56712;SDS011;42589;45.536;9.032;2024-01-27T01:56:59;169.10;;;106.35;;
56712;SDS011;42589;45.536;9.032;2024-01-27T02:00:00;167.95;;;111.47;;
56712;SDS011;42589;45.536;9.032;2024-01-27T02:03:01;166.70;;;103.00;;
56712;SDS011;42589;45.536;9.032;2024-01-27T02:06:01;167.20;;;108.03;;
56712;SDS011;42589;45.536;9.032;2024-01-27T02:09:02;168.18;;;106.80;;
56712;SDS011;42589;45.536;9.032;2024-01-27T02:12:03;173.25;;;111.70;;
56712;SDS011;42589;45.536;9.032;2024-01-27T02:15:04;172.90;;;102.97;;
56712;SDS011;42589;45.536;9.032;2024-01-27T02:18:07;170.00;;;105.93;;
56712;SDS011;42589;45.536;9.032;2024-01-27T02:21:08;172.40;;;111.97;;
56712;SDS011;42589;45.536;9.032;2024-01-27T02:24:08;178.60;;;110.93;;
56712;SDS011;42589;45.536;9.032;2024-01-27T02:27:10;174.65;;;113.05;;
56712;SDS011;42589;45.536;9.032;2024-01-27T02:30:11;173.38;;;106.35;;
56712;SDS011;42589;45.536;9.032;2024-01-27T02:33:12;180.60;;;112.95;;
56712;SDS011;42589;45.536;9.032;2024-01-27T02:36:12;174.00;;;111.13;;
56712;SDS011;42589;45.536;9.032;2024-01-27T02:39:13;174.90;;;106.28;;
56712;SDS011;42589;45.536;9.032;2024-01-27T02:42:14;167.80;;;101.22;;
56712;SDS011;42589;45.536;9.032;2024-01-27T02:45:15;174.10;;;107.15;;
56712;SDS011;42589;45.536;9.032;2024-01-27T02:48:15;164.48;;;104.35;;
56712;SDS011;42589;45.536;9.032;2024-01-27T02:51:19;176.05;;;112.13;;
56712;SDS011;42589;45.536;9.032;2024-01-27T02:54:20;171.23;;;108.22;;
56712;SDS011;42589;45.536;9.032;2024-01-27T02:57:21;164.45;;;107.65;;
56712;SDS011;42589;45.536;9.032;2024-01-27T03:00:22;166.10;;;104.97;;
56712;SDS011;42589;45.536;9.032;2024-01-27T03:03:23;166.25;;;102.70;;
56712;SDS011;42589;45.536;9.032;2024-01-27T03:06:23;172.65;;;106.50;;
56712;SDS011;42589;45.536;9.032;2024-01-27T03:09:24;164.93;;;107.55;;
56712;SDS011;42589;45.536;9.032;2024-01-27T03:12:25;175.15;;;109.10;;
56712;SDS011;42589;45.536;9.032;2024-01-27T03:15:25;171.35;;;108.45;;
56712;SDS011;42589;45.536;9.032;2024-01-27T03:18:26;171.05;;;108.28;;
56712;SDS011;42589;45.536;9.032;2024-01-27T03:21:27;168.77;;;109.05;;
56712;SDS011;42589;45.536;9.032;2024-01-27T03:24:28;173.18;;;107.80;;
56712;SDS011;42589;45.536;9.032;2024-01-27T03:27:29;170.40;;;113.07;;
56712;SDS011;42589;45.536;9.032;2024-01-27T03:30:30;171.40;;;107.50;;
56712;SDS011;42589;45.536;9.032;2024-01-27T03:33:31;173.43;;;109.63;;
56712;SDS011;42589;45.536;9.032;2024-01-27T03:36:31;157.38;;;107.95;;
56712;SDS011;42589;45.536;9.032;2024-01-27T03:39:32;171.77;;;110.32;;
56712;SDS011;42589;45.536;9.032;2024-01-27T03:42:33;169.90;;;104.22;;
56712;SDS011;42589;45.536;9.032;2024-01-27T03:45:34;173.25;;;108.93;;
56712;SDS011;42589;45.536;9.032;2024-01-27T03:48:34;177.15;;;110.80;;
56712;SDS011;42589;45.536;9.032;2024-01-27T03:51:35;173.48;;;108.60;;
56712;SDS011;42589;45.536;9.032;2024-01-27T03:54:37;175.50;;;113.65;;
56712;SDS011;42589;45.536;9.032;2024-01-27T03:57:38;169.45;;;110.53;;
56712;SDS011;42589;45.536;9.032;2024-01-27T04:00:39;174.77;;;111.50;;
56712;SDS011;42589;45.536;9.032;2024-01-27T04:03:39;174.05;;;108.65;;
56712;SDS011;42589;45.536;9.032;2024-01-27T04:06:40;172.88;;;112.70;;
56712;SDS011;42589;45.536;9.032;2024-01-27T04:09:41;171.50;;;111.22;;
56712;SDS011;42589;45.536;9.032;2024-01-27T04:12:42;177.30;;;113.13;;
56712;SDS011;42589;45.536;9.032;2024-01-27T04:15:43;175.40;;;109.88;;
56712;SDS011;42589;45.536;9.032;2024-01-27T04:18:43;178.48;;;110.60;;
56712;SDS011;42589;45.536;9.032;2024-01-27T04:21:43;174.02;;;109.13;;
56712;SDS011;42589;45.536;9.032;2024-01-27T04:24:44;170.05;;;109.53;;
56712;SDS011;42589;45.536;9.032;2024-01-27T04:27:45;177.18;;;109.07;;
56712;SDS011;42589;45.536;9.032;2024-01-27T04:30:45;174.35;;;105.55;;
56712;SDS011;42589;45.536;9.032;2024-01-27T04:33:46;171.38;;;106.93;;
56712;SDS011;42589;45.536;9.032;2024-01-27T04:36:47;178.43;;;111.03;;
56712;SDS011;42589;45.536;9.032;2024-01-27T04:39:48;169.65;;;108.20;;
56712;SDS011;42589;45.536;9.032;2024-01-27T04:42:49;164.43;;;102.63;;
56712;SDS011;42589;45.536;9.032;2024-01-27T04:45:50;161.48;;;102.43;;
56712;SDS011;42589;45.536;9.032;2024-01-27T04:48:51;152.40;;;98.03;;
56712;SDS011;42589;45.536;9.032;2024-01-27T04:51:51;155.45;;;98.40;;
56712;SDS011;42589;45.536;9.032;2024-01-27T04:54:52;154.85;;;100.00;;
56712;SDS011;42589;45.536;9.032;2024-01-27T04:57:53;160.20;;;102.65;;
56712;SDS011;42589;45.536;9.032;2024-01-27T05:00:53;156.60;;;94.88;;
56712;SDS011;42589;45.536;9.032;2024-01-27T05:03:54;147.20;;;88.07;;
56712;SDS011;42589;45.536;9.032;2024-01-27T05:06:55;142.05;;;90.55;;
56712;SDS011;42589;45.536;9.032;2024-01-27T05:09:56;133.95;;;78.72;;
56712;SDS011;42589;45.536;9.032;2024-01-27T05:12:57;127.65;;;85.40;;
56712;SDS011;42589;45.536;9.032;2024-01-27T05:15:59;139.98;;;81.38;;
56712;SDS011;42589;45.536;9.032;2024-01-27T05:19:00;137.32;;;88.05;;
56712;SDS011;42589;45.536;9.032;2024-01-27T05:22:00;144.48;;;91.70;;
56712;SDS011;42589;45.536;9.032;2024-01-27T05:25:01;146.85;;;84.63;;
56712;SDS011;42589;45.536;9.032;2024-01-27T05:28:02;147.30;;;88.80;;
56712;SDS011;42589;45.536;9.032;2024-01-27T05:31:03;142.95;;;81.43;;
56712;SDS011;42589;45.536;9.032;2024-01-27T05:34:04;155.55;;;92.75;;
56712;SDS011;42589;45.536;9.032;2024-01-27T05:37:05;164.95;;;94.55;;
56712;SDS011;42589;45.536;9.032;2024-01-27T05:40:06;153.75;;;88.40;;
56712;SDS011;42589;45.536;9.032;2024-01-27T05:43:07;146.52;;;80.55;;
56712;SDS011;42589;45.536;9.032;2024-01-27T05:46:08;134.75;;;79.72;;
56712;SDS011;42589;45.536;9.032;2024-01-27T05:49:09;143.13;;;89.43;;
56712;SDS011;42589;45.536;9.032;2024-01-27T05:52:09;127.22;;;82.35;;
56712;SDS011;42589;45.536;9.032;2024-01-27T05:55:11;139.55;;;82.07;;
56712;SDS011;42589;45.536;9.032;2024-01-27T05:58:14;119.30;;;75.63;;
56712;SDS011;42589;45.536;9.032;2024-01-27T06:01:17;122.60;;;79.97;;
56712;SDS011;42589;45.536;9.032;2024-01-27T06:04:17;136.52;;;72.47;;
56712;SDS011;42589;45.536;9.032;2024-01-27T06:07:18;185.55;;;74.70;;
56712;SDS011;42589;45.536;9.032;2024-01-27T06:10:19;114.50;;;66.55;;
56712;SDS011;42589;45.536;9.032;2024-01-27T06:13:19;125.05;;;72.82;;
56712;SDS011;42589;45.536;9.032;2024-01-27T06:16:20;120.07;;;75.00;;
56712;SDS011;42589;45.536;9.032;2024-01-27T06:19:21;128.38;;;77.53;;
56712;SDS011;42589;45.536;9.032;2024-01-27T06:22:21;117.40;;;72.80;;
56712;SDS011;42589;45.536;9.032;2024-01-27T06:25:22;116.10;;;66.18;;
56712;SDS011;42589;45.536;9.032;2024-01-27T06:28:22;117.80;;;63.88;;
56712;SDS011;42589;45.536;9.032;2024-01-27T06:31:23;118.38;;;65.50;;
56712;SDS011;42589;45.536;9.032;2024-01-27T06:34:24;143.73;;;65.82;;
56712;SDS011;42589;45.536;9.032;2024-01-27T06:37:24;129.43;;;63.17;;
56712;SDS011;42589;45.536;9.032;2024-01-27T06:40:25;119.78;;;64.05;;
56712;SDS011;42589;45.536;9.032;2024-01-27T06:43:27;130.70;;;67.65;;
56712;SDS011;42589;45.536;9.032;2024-01-27T06:46:27;126.57;;;69.95;;
56712;SDS011;42589;45.536;9.032;2024-01-27T06:49:29;129.15;;;66.75;;
56712;SDS011;42589;45.536;9.032;2024-01-27T06:52:29;137.50;;;69.40;;
56712;SDS011;42589;45.536;9.032;2024-01-27T06:55:30;144.00;;;77.38;;
56712;SDS011;42589;45.536;9.032;2024-01-27T06:58:31;140.48;;;77.40;;
56712;SDS011;42589;45.536;9.032;2024-01-27T07:01:32;143.45;;;78.57;;
56712;SDS011;42589;45.536;9.032;2024-01-27T07:04:33;146.95;;;84.90;;
56712;SDS011;42589;45.536;9.032;2024-01-27T07:07:34;143.80;;;75.13;;
56712;SDS011;42589;45.536;9.032;2024-01-27T07:10:35;144.88;;;77.15;;
56712;SDS011;42589;45.536;9.032;2024-01-27T07:13:35;142.98;;;82.80;;
56712;SDS011;42589;45.536;9.032;2024-01-27T07:16:36;139.35;;;83.25;;
56712;SDS011;42589;45.536;9.032;2024-01-27T07:19:38;150.52;;;77.65;;
56712;SDS011;42589;45.536;9.032;2024-01-27T07:22:39;137.70;;;82.55;;
56712;SDS011;42589;45.536;9.032;2024-01-27T07:25:39;130.95;;;82.57;;
56712;SDS011;42589;45.536;9.032;2024-01-27T07:28:40;135.85;;;76.60;;
56712;SDS011;42589;45.536;9.032;2024-01-27T07:31:41;134.50;;;79.20;;
56712;SDS011;42589;45.536;9.032;2024-01-27T07:34:42;136.07;;;72.55;;
56712;SDS011;42589;45.536;9.032;2024-01-27T07:37:43;131.73;;;77.15;;
56712;SDS011;42589;45.536;9.032;2024-01-27T07:40:44;119.70;;;75.47;;
56712;SDS011;42589;45.536;9.032;2024-01-27T07:43:45;119.18;;;66.93;;
56712;SDS011;42589;45.536;9.032;2024-01-27T07:46:52;110.05;;;70.18;;
56712;SDS011;42589;45.536;9.032;2024-01-27T07:49:53;111.65;;;68.28;;
56712;SDS011;42589;45.536;9.032;2024-01-27T07:52:54;106.70;;;66.85;;
56712;SDS011;42589;45.536;9.032;2024-01-27T07:55:54;103.95;;;67.72;;
56712;SDS011;42589;45.536;9.032;2024-01-27T07:58:57;106.72;;;69.95;;
56712;SDS011;42589;45.536;9.032;2024-01-27T08:01:59;99.72;;;66.32;;
56712;SDS011;42589;45.536;9.032;2024-01-27T08:05:00;102.05;;;68.47;;
56712;SDS011;42589;45.536;9.032;2024-01-27T08:08:00;102.68;;;63.20;;
56712;SDS011;42589;45.536;9.032;2024-01-27T08:11:01;105.72;;;68.00;;
56712;SDS011;42589;45.536;9.032;2024-01-27T08:14:02;105.93;;;67.68;;
56712;SDS011;42589;45.536;9.032;2024-01-27T08:17:03;107.70;;;65.32;;
56712;SDS011;42589;45.536;9.032;2024-01-27T08:20:04;107.20;;;63.63;;
56712;SDS011;42589;45.536;9.032;2024-01-27T08:23:04;107.07;;;71.38;;
56712;SDS011;42589;45.536;9.032;2024-01-27T08:26:06;110.25;;;71.32;;
56712;SDS011;42589;45.536;9.032;2024-01-27T08:29:07;105.65;;;69.93;;
56712;SDS011;42589;45.536;9.032;2024-01-27T08:32:07;109.75;;;72.93;;
56712;SDS011;42589;45.536;9.032;2024-01-27T08:35:09;109.38;;;69.70;;
56712;SDS011;42589;45.536;9.032;2024-01-27T08:38:10;107.28;;;71.03;;
56712;SDS011;42589;45.536;9.032;2024-01-27T08:41:12;110.00;;;72.07;;
56712;SDS011;42589;45.536;9.032;2024-01-27T08:44:12;109.88;;;72.05;;
56712;SDS011;42589;45.536;9.032;2024-01-27T08:47:13;108.78;;;74.00;;
56712;SDS011;42589;45.536;9.032;2024-01-27T08:50:14;108.57;;;75.25;;
56712;SDS011;42589;45.536;9.032;2024-01-27T08:53:15;109.57;;;72.63;;
56712;SDS011;42589;45.536;9.032;2024-01-27T08:56:16;105.07;;;73.43;;
56712;SDS011;42589;45.536;9.032;2024-01-27T08:59:19;100.25;;;74.85;;
56712;SDS011;42589;45.536;9.032;2024-01-27T09:02:20;101.90;;;73.38;;
56712;SDS011;42589;45.536;9.032;2024-01-27T09:05:21;102.20;;;72.10;;
56712;SDS011;42589;45.536;9.032;2024-01-27T09:08:21;103.43;;;70.13;;
56712;SDS011;42589;45.536;9.032;2024-01-27T09:11:22;105.85;;;71.25;;
56712;SDS011;42589;45.536;9.032;2024-01-27T09:14:23;102.13;;;76.63;;
56712;SDS011;42589;45.536;9.032;2024-01-27T09:17:24;104.38;;;74.97;;
56712;SDS011;42589;45.536;9.032;2024-01-27T09:20:25;95.78;;;72.45;;
56712;SDS011;42589;45.536;9.032;2024-01-27T09:23:25;95.30;;;72.45;;
56712;SDS011;42589;45.536;9.032;2024-01-27T09:26:26;103.53;;;71.97;;
56712;SDS011;42589;45.536;9.032;2024-01-27T09:29:28;104.50;;;71.63;;
56712;SDS011;42589;45.536;9.032;2024-01-27T09:32:29;100.45;;;72.63;;
56712;SDS011;42589;45.536;9.032;2024-01-27T09:35:32;96.10;;;72.53;;
56712;SDS011;42589;45.536;9.032;2024-01-27T09:38:34;99.93;;;74.45;;
56712;SDS011;42589;45.536;9.032;2024-01-27T09:41:34;99.63;;;73.28;;
56712;SDS011;42589;45.536;9.032;2024-01-27T09:44:36;100.75;;;72.18;;
56712;SDS011;42589;45.536;9.032;2024-01-27T09:47:36;96.88;;;71.22;;
56712;SDS011;42589;45.536;9.032;2024-01-27T09:50:41;99.70;;;70.47;;
56712;SDS011;42589;45.536;9.032;2024-01-27T09:53:42;93.87;;;73.33;;
56712;SDS011;42589;45.536;9.032;2024-01-27T09:56:43;95.25;;;70.35;;
56712;SDS011;42589;45.536;9.032;2024-01-27T09:59:45;92.65;;;71.22;;
56712;SDS011;42589;45.536;9.032;2024-01-27T10:02:47;94.88;;;74.32;;
56712;SDS011;42589;45.536;9.032;2024-01-27T10:05:48;95.70;;;73.93;;
56712;SDS011;42589;45.536;9.032;2024-01-27T10:08:53;90.28;;;70.97;;
56712;SDS011;42589;45.536;9.032;2024-01-27T10:11:54;89.95;;;72.13;;
56712;SDS011;42589;45.536;9.032;2024-01-27T10:14:56;94.95;;;72.10;;
56712;SDS011;42589;45.536;9.032;2024-01-27T10:18:05;93.88;;;71.88;;
56712;SDS011;42589;45.536;9.032;2024-01-27T10:21:16;95.13;;;74.00;;
56712;SDS011;42589;45.536;9.032;2024-01-27T10:24:16;89.68;;;68.93;;
56712;SDS011;42589;45.536;9.032;2024-01-27T10:27:17;91.22;;;72.57;;
56712;SDS011;42589;45.536;9.032;2024-01-27T10:30:18;97.18;;;75.28;;
56712;SDS011;42589;45.536;9.032;2024-01-27T10:33:19;92.28;;;73.18;;
56712;SDS011;42589;45.536;9.032;2024-01-27T10:36:19;92.03;;;71.93;;
56712;SDS011;42589;45.536;9.032;2024-01-27T10:39:21;90.50;;;70.82;;
56712;SDS011;42589;45.536;9.032;2024-01-27T10:42:22;93.25;;;71.72;;
56712;SDS011;42589;45.536;9.032;2024-01-27T10:45:22;91.25;;;69.30;;
56712;SDS011;42589;45.536;9.032;2024-01-27T10:48:23;88.65;;;68.43;;
56712;SDS011;42589;45.536;9.032;2024-01-27T10:51:29;87.47;;;68.78;;
56712;SDS011;42589;45.536;9.032;2024-01-27T10:54:30;85.85;;;67.93;;
56712;SDS011;42589;45.536;9.032;2024-01-27T10:57:33;83.97;;;65.72;;
56712;SDS011;42589;45.536;9.032;2024-01-27T11:00:34;82.10;;;63.35;;
56712;SDS011;42589;45.536;9.032;2024-01-27T11:03:39;85.47;;;64.88;;
56712;SDS011;42589;45.536;9.032;2024-01-27T11:06:39;80.65;;;63.65;;
56712;SDS011;42589;45.536;9.032;2024-01-27T11:09:42;85.68;;;66.10;;
56712;SDS011;42589;45.536;9.032;2024-01-27T11:12:43;93.90;;;69.35;;
56712;SDS011;42589;45.536;9.032;2024-01-27T11:15:51;95.35;;;71.18;;
56712;SDS011;42589;45.536;9.032;2024-01-27T11:18:52;92.50;;;68.90;;
56712;SDS011;42589;45.536;9.032;2024-01-27T11:22:03;91.85;;;70.82;;
56712;SDS011;42589;45.536;9.032;2024-01-27T11:25:07;89.70;;;69.93;;
56712;SDS011;42589;45.536;9.032;2024-01-27T11:28:12;95.47;;;70.65;;
56712;SDS011;42589;45.536;9.032;2024-01-27T11:31:16;88.13;;;66.82;;
56712;SDS011;42589;45.536;9.032;2024-01-27T11:34:17;87.93;;;66.75;;
56712;SDS011;42589;45.536;9.032;2024-01-27T11:37:19;91.00;;;67.68;;
56712;SDS011;42589;45.536;9.032;2024-01-27T11:40:24;88.80;;;64.00;;
56712;SDS011;42589;45.536;9.032;2024-01-27T11:43:25;84.65;;;64.72;;
56712;SDS011;42589;45.536;9.032;2024-01-27T11:46:26;81.15;;;61.15;;
56712;SDS011;42589;45.536;9.032;2024-01-27T11:49:27;84.63;;;62.17;;
56712;SDS011;42589;45.536;9.032;2024-01-27T11:52:27;83.07;;;61.22;;
56712;SDS011;42589;45.536;9.032;2024-01-27T11:55:28;78.10;;;60.50;;
56712;SDS011;42589;45.536;9.032;2024-01-27T11:58:29;83.03;;;58.35;;
56712;SDS011;42589;45.536;9.032;2024-01-27T12:01:30;75.15;;;55.47;;
56712;SDS011;42589;45.536;9.032;2024-01-27T12:04:31;75.38;;;55.60;;
56712;SDS011;42589;45.536;9.032;2024-01-27T12:07:31;73.32;;;56.17;;
56712;SDS011;42589;45.536;9.032;2024-01-27T12:10:32;75.75;;;57.38;;
56712;SDS011;42589;45.536;9.032;2024-01-27T12:13:33;70.85;;;55.55;;
56712;SDS011;42589;45.536;9.032;2024-01-27T12:16:35;71.22;;;56.08;;
56712;SDS011;42589;45.536;9.032;2024-01-27T12:19:35;72.78;;;54.53;;
56712;SDS011;42589;45.536;9.032;2024-01-27T12:22:36;70.07;;;55.55;;
56712;SDS011;42589;45.536;9.032;2024-01-27T12:25:37;76.97;;;54.75;;
56712;SDS011;42589;45.536;9.032;2024-01-27T12:28:38;70.80;;;54.70;;
56712;SDS011;42589;45.536;9.032;2024-01-27T12:31:39;69.63;;;55.25;;
56712;SDS011;42589;45.536;9.032;2024-01-27T12:34:40;67.88;;;53.45;;
56712;SDS011;42589;45.536;9.032;2024-01-27T12:37:42;64.80;;;50.65;;
56712;SDS011;42589;45.536;9.032;2024-01-27T12:40:44;63.47;;;51.10;;
56712;SDS011;42589;45.536;9.032;2024-01-27T12:43:44;63.42;;;50.78;;
56712;SDS011;42589;45.536;9.032;2024-01-27T12:46:47;62.45;;;50.22;;
56712;SDS011;42589;45.536;9.032;2024-01-27T12:49:48;63.08;;;48.70;;
56712;SDS011;42589;45.536;9.032;2024-01-27T12:52:49;73.63;;;51.60;;
56712;SDS011;42589;45.536;9.032;2024-01-27T12:55:50;55.83;;;45.42;;
56712;SDS011;42589;45.536;9.032;2024-01-27T12:58:57;54.30;;;43.22;;
56712;SDS011;42589;45.536;9.032;2024-01-27T13:01:58;54.53;;;44.53;;
56712;SDS011;42589;45.536;9.032;2024-01-27T13:04:59;53.38;;;43.05;;
56712;SDS011;42589;45.536;9.032;2024-01-27T13:08:00;50.47;;;41.47;;
56712;SDS011;42589;45.536;9.032;2024-01-27T13:11:00;51.65;;;41.58;;
56712;SDS011;42589;45.536;9.032;2024-01-27T13:14:04;49.00;;;40.35;;
56712;SDS011;42589;45.536;9.032;2024-01-27T13:17:05;48.97;;;39.72;;
56712;SDS011;42589;45.536;9.032;2024-01-27T13:20:06;52.85;;;40.03;;
56712;SDS011;42589;45.536;9.032;2024-01-27T13:23:06;52.75;;;40.72;;
56712;SDS011;42589;45.536;9.032;2024-01-27T13:26:07;54.75;;;42.35;;
56712;SDS011;42589;45.536;9.032;2024-01-27T13:29:07;55.40;;;44.45;;
56712;SDS011;42589;45.536;9.032;2024-01-27T13:32:08;55.33;;;42.40;;
56712;SDS011;42589;45.536;9.032;2024-01-27T13:35:08;57.92;;;44.75;;
56712;SDS011;42589;45.536;9.032;2024-01-27T13:38:09;60.65;;;45.40;;
56712;SDS011;42589;45.536;9.032;2024-01-27T13:41:09;55.85;;;44.83;;
56712;SDS011;42589;45.536;9.032;2024-01-27T13:44:10;52.55;;;41.78;;
56712;SDS011;42589;45.536;9.032;2024-01-27T13:47:11;53.28;;;41.67;;
56712;SDS011;42589;45.536;9.032;2024-01-27T13:50:15;52.45;;;40.10;;
56712;SDS011;42589;45.536;9.032;2024-01-27T13:53:16;54.55;;;41.60;;
56712;SDS011;42589;45.536;9.032;2024-01-27T13:56:16;48.65;;;40.78;;
56712;SDS011;42589;45.536;9.032;2024-01-27T13:59:17;46.20;;;38.70;;
56712;SDS011;42589;45.536;9.032;2024-01-27T14:02:19;50.28;;;39.75;;
56712;SDS011;42589;45.536;9.032;2024-01-27T14:05:20;48.35;;;38.15;;
56712;SDS011;42589;45.536;9.032;2024-01-27T14:08:21;46.70;;;39.22;;
56712;SDS011;42589;45.536;9.032;2024-01-27T14:11:21;50.30;;;37.90;;
56712;SDS011;42589;45.536;9.032;2024-01-27T14:14:22;51.92;;;38.47;;
56712;SDS011;42589;45.536;9.032;2024-01-27T14:17:23;44.08;;;35.08;;
56712;SDS011;42589;45.536;9.032;2024-01-27T14:20:24;49.63;;;37.25;;
56712;SDS011;42589;45.536;9.032;2024-01-27T14:23:25;53.95;;;36.85;;
56712;SDS011;42589;45.536;9.032;2024-01-27T14:26:29;44.58;;;36.58;;
56712;SDS011;42589;45.536;9.032;2024-01-27T14:29:30;48.20;;;36.40;;
56712;SDS011;42589;45.536;9.032;2024-01-27T14:32:32;48.33;;;36.38;;
56712;SDS011;42589;45.536;9.032;2024-01-27T14:35:34;44.10;;;36.13;;
56712;SDS011;42589;45.536;9.032;2024-01-27T14:38:37;51.15;;;37.72;;
56712;SDS011;42589;45.536;9.032;2024-01-27T14:41:38;50.22;;;38.15;;
56712;SDS011;42589;45.536;9.032;2024-01-27T14:44:39;47.25;;;36.58;;
56712;SDS011;42589;45.536;9.032;2024-01-27T14:47:40;52.72;;;38.45;;
56712;SDS011;42589;45.536;9.032;2024-01-27T14:50:41;54.28;;;41.13;;
56712;SDS011;42589;45.536;9.032;2024-01-27T14:53:42;53.15;;;40.63;;
56712;SDS011;42589;45.536;9.032;2024-01-27T14:56:46;56.28;;;43.65;;
56712;SDS011;42589;45.536;9.032;2024-01-27T14:59:47;57.05;;;43.63;;
56712;SDS011;42589;45.536;9.032;2024-01-27T15:02:51;55.75;;;42.83;;
56712;SDS011;42589;45.536;9.032;2024-01-27T15:05:52;60.33;;;44.92;;
56712;SDS011;42589;45.536;9.032;2024-01-27T15:08:53;59.65;;;44.30;;
56712;SDS011;42589;45.536;9.032;2024-01-27T15:11:54;60.83;;;46.53;;
56712;SDS011;42589;45.536;9.032;2024-01-27T15:14:54;61.53;;;46.40;;
56712;SDS011;42589;45.536;9.032;2024-01-27T15:17:55;63.40;;;47.22;;
56712;SDS011;42589;45.536;9.032;2024-01-27T15:21:00;65.13;;;47.28;;
56712;SDS011;42589;45.536;9.032;2024-01-27T15:24:00;69.30;;;53.97;;
56712;SDS011;42589;45.536;9.032;2024-01-27T15:27:01;75.22;;;57.55;;
56712;SDS011;42589;45.536;9.032;2024-01-27T15:30:02;87.00;;;62.33;;
56712;SDS011;42589;45.536;9.032;2024-01-27T15:33:03;81.00;;;63.70;;
56712;SDS011;42589;45.536;9.032;2024-01-27T15:36:03;84.05;;;62.55;;
56712;SDS011;42589;45.536;9.032;2024-01-27T15:39:04;83.53;;;63.25;;
56712;SDS011;42589;45.536;9.032;2024-01-27T15:42:14;87.47;;;63.67;;
56712;SDS011;42589;45.536;9.032;2024-01-27T15:45:14;89.55;;;64.80;;
56712;SDS011;42589;45.536;9.032;2024-01-27T15:48:15;93.00;;;66.50;;
56712;SDS011;42589;45.536;9.032;2024-01-27T15:51:16;87.50;;;65.65;;
56712;SDS011;42589;45.536;9.032;2024-01-27T15:54:17;90.15;;;66.78;;
56712;SDS011;42589;45.536;9.032;2024-01-27T15:57:20;91.23;;;65.57;;
56712;SDS011;42589;45.536;9.032;2024-01-27T16:00:22;89.43;;;65.88;;
56712;SDS011;42589;45.536;9.032;2024-01-27T16:03:24;83.93;;;63.63;;
56712;SDS011;42589;45.536;9.032;2024-01-27T16:06:26;89.95;;;65.13;;
56712;SDS011;42589;45.536;9.032;2024-01-27T16:09:26;88.78;;;64.07;;
56712;SDS011;42589;45.536;9.032;2024-01-27T16:12:30;85.57;;;63.97;;
56712;SDS011;42589;45.536;9.032;2024-01-27T16:15:30;88.40;;;65.70;;
56712;SDS011;42589;45.536;9.032;2024-01-27T16:18:31;91.15;;;65.95;;
56712;SDS011;42589;45.536;9.032;2024-01-27T16:21:32;86.65;;;64.78;;
56712;SDS011;42589;45.536;9.032;2024-01-27T16:24:33;91.45;;;67.28;;
56712;SDS011;42589;45.536;9.032;2024-01-27T16:27:34;92.65;;;70.13;;
56712;SDS011;42589;45.536;9.032;2024-01-27T16:30:35;97.35;;;68.25;;
56712;SDS011;42589;45.536;9.032;2024-01-27T16:33:36;96.68;;;67.55;;
56712;SDS011;42589;45.536;9.032;2024-01-27T16:36:36;92.90;;;67.32;;
56712;SDS011;42589;45.536;9.032;2024-01-27T16:39:37;94.20;;;68.43;;
56712;SDS011;42589;45.536;9.032;2024-01-27T16:42:38;95.03;;;67.00;;
56712;SDS011;42589;45.536;9.032;2024-01-27T16:45:39;92.78;;;69.90;;
56712;SDS011;42589;45.536;9.032;2024-01-27T16:48:40;97.32;;;70.18;;
56712;SDS011;42589;45.536;9.032;2024-01-27T16:51:42;92.00;;;69.53;;
56712;SDS011;42589;45.536;9.032;2024-01-27T16:54:42;103.57;;;73.97;;
56712;SDS011;42589;45.536;9.032;2024-01-27T16:57:42;96.72;;;73.28;;
56712;SDS011;42589;45.536;9.032;2024-01-27T17:00:44;106.10;;;73.97;;
56712;SDS011;42589;45.536;9.032;2024-01-27T17:03:44;94.68;;;71.63;;
56712;SDS011;42589;45.536;9.032;2024-01-27T17:06:45;100.07;;;73.32;;
56712;SDS011;42589;45.536;9.032;2024-01-27T17:09:46;95.03;;;72.00;;
56712;SDS011;42589;45.536;9.032;2024-01-27T17:12:46;101.93;;;75.57;;
56712;SDS011;42589;45.536;9.032;2024-01-27T17:15:47;102.22;;;77.05;;
56712;SDS011;42589;45.536;9.032;2024-01-27T17:18:48;104.82;;;77.40;;
56712;SDS011;42589;45.536;9.032;2024-01-27T17:21:49;111.65;;;82.18;;
56712;SDS011;42589;45.536;9.032;2024-01-27T17:24:50;113.63;;;82.18;;
56712;SDS011;42589;45.536;9.032;2024-01-27T17:27:50;113.28;;;84.00;;